sensor_id;sensor_type;location;lat;lon;timestamp;P1;durP1;ratioP1;P2;durP2;ratioP2
19505;SDS011;9894;50.852;-0.140;2023-08-01T00:00:06;1.27;;;0.75;;
19505;SDS011;9894;50.852;-0.140;2023-08-01T00:02:33;2.65;;;1.73;;
19505;SDS011;9894;50.852;-0.140;2023-08-01T00:05:00;0.63;;;0.47;;
19505;SDS011;9894;50.852;-0.140;2023-08-01T00:07:27;0.30;;;0.30;;
19505;SDS011;9894;50.852;-0.140;2023-08-01T00:09:53;7.32;;;1.42;;
19505;SDS011;9894;50.852;-0.140;2023-08-01T00:12:19;0.68;;;0.68;;
19505;SDS011;9894;50.852;-0.140;2023-08-01T00:14:46;0.50;;;0.43;;
19505;SDS011;9894;50.852;-0.140;2023-08-01T00:17:12;0.60;;;0.60;;
19505;SDS011;9894;50.852;-0.140;2023-08-01T00:19:39;6.22;;;2.17;;
19505;SDS011;9894;50.852;-0.140;2023-08-01T00:22:05;2.40;;;1.23;;
19505;SDS011;9894;50.852;-0.140;2023-08-01T00:24:31;1.15;;;1.05;;
19505;SDS011;9894;50.852;-0.140;2023-08-01T00:26:57;0.52;;;0.52;;
19505;SDS011;9894;50.852;-0.140;2023-08-01T00:29:23;1.20;;;0.73;;
19505;SDS011;9894;50.852;-0.140;2023-08-01T00:31:50;4.97;;;2.15;;
19505;SDS011;9894;50.852;-0.140;2023-08-01T00:34:16;5.50;;;2.53;;
19505;SDS011;9894;50.852;-0.140;2023-08-01T00:36:42;8.43;;;3.53;;
19505;SDS011;9894;50.852;-0.140;2023-08-01T00:39:08;0.15;;;0.15;;
19505;SDS011;9894;50.852;-0.140;2023-08-01T00:41:34;7.57;;;1.58;;
19505;SDS011;9894;50.852;-0.140;2023-08-01T00:44:01;13.88;;;4.28;;
19505;SDS011;9894;50.852;-0.140;2023-08-01T00:46:27;1.30;;;1.20;;
19505;SDS011;9894;50.852;-0.140;2023-08-01T00:48:53;8.40;;;2.20;;
19505;SDS011;9894;50.852;-0.140;2023-08-01T00:51:23;5.47;;;2.28;;
19505;SDS011;9894;50.852;-0.140;2023-08-01T00:53:50;6.43;;;2.17;;
19505;SDS011;9894;50.852;-0.140;2023-08-01T00:56:17;1.30;;;0.65;;
19505;SDS011;9894;50.852;-0.140;2023-08-01T00:58:43;0.45;;;0.43;;
19505;SDS011;9894;50.852;-0.140;2023-08-01T01:01:09;2.25;;;1.27;;
19505;SDS011;9894;50.852;-0.140;2023-08-01T01:03:36;4.20;;;1.85;;
19505;SDS011;9894;50.852;-0.140;2023-08-01T01:06:16;0.57;;;0.57;;
19505;SDS011;9894;50.852;-0.140;2023-08-01T01:08:47;4.57;;;1.42;;
19505;SDS011;9894;50.852;-0.140;2023-08-01T01:11:13;0.32;;;0.32;;
19505;SDS011;9894;50.852;-0.140;2023-08-01T01:13:40;0.52;;;0.52;;
19505;SDS011;9894;50.852;-0.140;2023-08-01T01:16:06;8.45;;;3.25;;
19505;SDS011;9894;50.852;-0.140;2023-08-01T01:18:32;6.28;;;1.00;;
19505;SDS011;9894;50.852;-0.140;2023-08-01T01:20:58;0.30;;;0.30;;
19505;SDS011;9894;50.852;-0.140;2023-08-01T01:23:24;5.13;;;2.35;;
19505;SDS011;9894;50.852;-0.140;2023-08-01T01:25:51;3.38;;;1.42;;
19505;SDS011;9894;50.852;-0.140;2023-08-01T01:28:17;14.82;;;3.65;;
19505;SDS011;9894;50.852;-0.140;2023-08-01T01:30:44;0.10;;;0.10;;
19505;SDS011;9894;50.852;-0.140;2023-08-01T01:33:11;4.28;;;2.00;;
19505;SDS011;9894;50.852;-0.140;2023-08-01T01:35:37;5.95;;;1.55;;
19505;SDS011;9894;50.852;-0.140;2023-08-01T01:38:04;5.10;;;2.83;;
19505;SDS011;9894;50.852;-0.140;2023-08-01T01:40:30;4.32;;;2.42;;
19505;SDS011;9894;50.852;-0.140;2023-08-01T01:42:57;5.22;;;1.65;;
19505;SDS011;9894;50.852;-0.140;2023-08-01T01:45:23;0.30;;;0.30;;
19505;SDS011;9894;50.852;-0.140;2023-08-01T01:47:49;0.75;;;0.50;;
19505;SDS011;9894;50.852;-0.140;2023-08-01T01:50:15;1.42;;;0.90;;
19505;SDS011;9894;50.852;-0.140;2023-08-01T01:52:43;8.98;;;2.55;;
19505;SDS011;9894;50.852;-0.140;2023-08-01T01:55:09;5.45;;;1.65;;
19505;SDS011;9894;50.852;-0.140;2023-08-01T01:57:35;0.40;;;0.40;;
19505;SDS011;9894;50.852;-0.140;2023-08-01T02:00:03;9.07;;;1.60;;
19505;SDS011;9894;50.852;-0.140;2023-08-01T02:02:29;3.70;;;1.40;;
19505;SDS011;9894;50.852;-0.140;2023-08-01T02:04:55;1.83;;;0.77;;
19505;SDS011;9894;50.852;-0.140;2023-08-01T02:07:21;1.63;;;0.77;;
19505;SDS011;9894;50.852;-0.140;2023-08-01T02:09:47;4.25;;;1.50;;
19505;SDS011;9894;50.852;-0.140;2023-08-01T02:12:14;5.75;;;2.45;;
19505;SDS011;9894;50.852;-0.140;2023-08-01T02:14:40;4.97;;;1.10;;
19505;SDS011;9894;50.852;-0.140;2023-08-01T02:17:06;5.07;;;2.17;;
19505;SDS011;9894;50.852;-0.140;2023-08-01T02:19:33;0.98;;;0.82;;
19505;SDS011;9894;50.852;-0.140;2023-08-01T02:21:59;0.28;;;0.28;;
19505;SDS011;9894;50.852;-0.140;2023-08-01T02:24:25;7.80;;;0.52;;
19505;SDS011;9894;50.852;-0.140;2023-08-01T02:26:51;0.77;;;0.77;;
19505;SDS011;9894;50.852;-0.140;2023-08-01T02:29:17;10.55;;;2.13;;
19505;SDS011;9894;50.852;-0.140;2023-08-01T02:31:44;1.08;;;0.63;;
19505;SDS011;9894;50.852;-0.140;2023-08-01T02:34:10;14.25;;;5.38;;
19505;SDS011;9894;50.852;-0.140;2023-08-01T02:36:36;4.03;;;1.05;;
19505;SDS011;9894;50.852;-0.140;2023-08-01T02:39:02;3.80;;;1.40;;
19505;SDS011;9894;50.852;-0.140;2023-08-01T02:41:28;0.10;;;0.10;;
19505;SDS011;9894;50.852;-0.140;2023-08-01T02:43:55;0.10;;;0.10;;
19505;SDS011;9894;50.852;-0.140;2023-08-01T02:46:21;0.20;;;0.20;;
19505;SDS011;9894;50.852;-0.140;2023-08-01T02:48:48;1.90;;;0.90;;
19505;SDS011;9894;50.852;-0.140;2023-08-01T02:51:14;6.50;;;1.52;;
19505;SDS011;9894;50.852;-0.140;2023-08-01T02:53:40;7.57;;;1.40;;
19505;SDS011;9894;50.852;-0.140;2023-08-01T02:56:07;0.40;;;0.40;;
19505;SDS011;9894;50.852;-0.140;2023-08-01T02:58:35;0.20;;;0.20;;
19505;SDS011;9894;50.852;-0.140;2023-08-01T03:01:05;9.88;;;1.77;;
19505;SDS011;9894;50.852;-0.140;2023-08-01T03:03:32;0.55;;;0.40;;
19505;SDS011;9894;50.852;-0.140;2023-08-01T03:06:01;0.65;;;0.50;;
19505;SDS011;9894;50.852;-0.140;2023-08-01T03:08:27;2.17;;;0.25;;
19505;SDS011;9894;50.852;-0.140;2023-08-01T03:10:54;7.50;;;2.33;;
19505;SDS011;9894;50.852;-0.140;2023-08-01T03:13:20;0.20;;;0.20;;
19505;SDS011;9894;50.852;-0.140;2023-08-01T03:15:46;12.70;;;2.40;;
19505;SDS011;9894;50.852;-0.140;2023-08-01T03:18:12;0.93;;;0.77;;
19505;SDS011;9894;50.852;-0.140;2023-08-01T03:20:39;4.75;;;1.45;;
19505;SDS011;9894;50.852;-0.140;2023-08-01T03:23:05;0.60;;;0.60;;
19505;SDS011;9894;50.852;-0.140;2023-08-01T03:25:31;5.57;;;1.67;;
19505;SDS011;9894;50.852;-0.140;2023-08-01T03:27:58;11.32;;;4.55;;
19505;SDS011;9894;50.852;-0.140;2023-08-01T03:30:24;5.55;;;1.35;;
19505;SDS011;9894;50.852;-0.140;2023-08-01T03:32:51;7.93;;;1.45;;
19505;SDS011;9894;50.852;-0.140;2023-08-01T03:35:17;3.30;;;0.45;;
19505;SDS011;9894;50.852;-0.140;2023-08-01T03:37:43;2.97;;;1.27;;
19505;SDS011;9894;50.852;-0.140;2023-08-01T03:40:10;0.38;;;0.38;;
19505;SDS011;9894;50.852;-0.140;2023-08-01T03:42:39;2.15;;;1.52;;
19505;SDS011;9894;50.852;-0.140;2023-08-01T03:45:05;0.80;;;0.63;;
19505;SDS011;9894;50.852;-0.140;2023-08-01T03:47:32;0.40;;;0.40;;
19505;SDS011;9894;50.852;-0.140;2023-08-01T03:49:58;1.55;;;1.05;;
19505;SDS011;9894;50.852;-0.140;2023-08-01T03:52:24;0.60;;;0.60;;
19505;SDS011;9894;50.852;-0.140;2023-08-01T03:54:53;0.55;;;0.43;;
19505;SDS011;9894;50.852;-0.140;2023-08-01T03:57:20;1.48;;;0.47;;
19505;SDS011;9894;50.852;-0.140;2023-08-01T03:59:46;0.20;;;0.20;;
19505;SDS011;9894;50.852;-0.140;2023-08-01T04:02:13;2.63;;;1.38;;
19505;SDS011;9894;50.852;-0.140;2023-08-01T04:04:39;0.20;;;0.20;;
19505;SDS011;9894;50.852;-0.140;2023-08-01T04:07:05;14.18;;;1.65;;
19505;SDS011;9894;50.852;-0.140;2023-08-01T04:09:31;0.20;;;0.20;;
19505;SDS011;9894;50.852;-0.140;2023-08-01T04:11:57;0.20;;;0.20;;
19505;SDS011;9894;50.852;-0.140;2023-08-01T04:14:24;0.63;;;0.43;;
19505;SDS011;9894;50.852;-0.140;2023-08-01T04:16:50;0.65;;;0.52;;
19505;SDS011;9894;50.852;-0.140;2023-08-01T04:19:16;0.10;;;0.10;;
19505;SDS011;9894;50.852;-0.140;2023-08-01T04:21:42;4.80;;;1.58;;
19505;SDS011;9894;50.852;-0.140;2023-08-01T04:24:08;0.20;;;0.20;;
19505;SDS011;9894;50.852;-0.140;2023-08-01T04:26:35;0.10;;;0.10;;
19505;SDS011;9894;50.852;-0.140;2023-08-01T04:29:02;0.20;;;0.20;;
19505;SDS011;9894;50.852;-0.140;2023-08-01T04:31:28;5.45;;;1.38;;
19505;SDS011;9894;50.852;-0.140;2023-08-01T04:33:54;2.95;;;0.75;;
19505;SDS011;9894;50.852;-0.140;2023-08-01T04:36:20;0.20;;;0.20;;
19505;SDS011;9894;50.852;-0.140;2023-08-01T04:38:47;2.55;;;0.65;;
19505;SDS011;9894;50.852;-0.140;2023-08-01T04:41:13;14.27;;;2.70;;
19505;SDS011;9894;50.852;-0.140;2023-08-01T04:43:39;0.30;;;0.30;;
19505;SDS011;9894;50.852;-0.140;2023-08-01T04:46:05;0.38;;;0.32;;
19505;SDS011;9894;50.852;-0.140;2023-08-01T04:48:31;0.30;;;0.30;;
19505;SDS011;9894;50.852;-0.140;2023-08-01T04:50:58;1.25;;;0.45;;
19505;SDS011;9894;50.852;-0.140;2023-08-01T04:53:24;9.50;;;0.63;;
19505;SDS011;9894;50.852;-0.140;2023-08-01T04:55:50;0.20;;;0.20;;
19505;SDS011;9894;50.852;-0.140;2023-08-01T04:58:17;0.22;;;0.22;;
19505;SDS011;9894;50.852;-0.140;2023-08-01T05:00:43;9.77;;;1.50;;
19505;SDS011;9894;50.852;-0.140;2023-08-01T05:03:09;5.30;;;0.60;;
19505;SDS011;9894;50.852;-0.140;2023-08-01T05:05:35;0.32;;;0.32;;
19505;SDS011;9894;50.852;-0.140;2023-08-01T05:08:01;0.10;;;0.10;;
19505;SDS011;9894;50.852;-0.140;2023-08-01T05:10:27;0.40;;;0.40;;
19505;SDS011;9894;50.852;-0.140;2023-08-01T05:12:53;5.40;;;1.15;;
19505;SDS011;9894;50.852;-0.140;2023-08-01T05:15:20;16.80;;;2.47;;
19505;SDS011;9894;50.852;-0.140;2023-08-01T05:17:46;9.73;;;3.05;;
19505;SDS011;9894;50.852;-0.140;2023-08-01T05:20:12;0.10;;;0.10;;
19505;SDS011;9894;50.852;-0.140;2023-08-01T05:22:39;4.40;;;1.27;;
19505;SDS011;9894;50.852;-0.140;2023-08-01T05:25:05;9.48;;;1.85;;
19505;SDS011;9894;50.852;-0.140;2023-08-01T05:27:31;4.65;;;1.95;;
19505;SDS011;9894;50.852;-0.140;2023-08-01T05:29:59;4.88;;;1.92;;
19505;SDS011;9894;50.852;-0.140;2023-08-01T05:32:25;0.30;;;0.30;;
19505;SDS011;9894;50.852;-0.140;2023-08-01T05:34:51;3.17;;;1.00;;
19505;SDS011;9894;50.852;-0.140;2023-08-01T05:37:17;11.80;;;1.08;;
19505;SDS011;9894;50.852;-0.140;2023-08-01T05:39:43;0.95;;;0.57;;
19505;SDS011;9894;50.852;-0.140;2023-08-01T05:42:10;0.17;;;0.17;;
19505;SDS011;9894;50.852;-0.140;2023-08-01T05:44:36;0.60;;;0.60;;
19505;SDS011;9894;50.852;-0.140;2023-08-01T05:47:02;1.00;;;0.40;;
19505;SDS011;9894;50.852;-0.140;2023-08-01T05:49:28;0.65;;;0.65;;
19505;SDS011;9894;50.852;-0.140;2023-08-01T05:51:55;2.65;;;0.88;;
19505;SDS011;9894;50.852;-0.140;2023-08-01T05:54:21;3.80;;;1.70;;
19505;SDS011;9894;50.852;-0.140;2023-08-01T05:56:47;0.45;;;0.45;;
19505;SDS011;9894;50.852;-0.140;2023-08-01T05:59:13;0.20;;;0.20;;
19505;SDS011;9894;50.852;-0.140;2023-08-01T06:01:39;9.88;;;1.80;;
19505;SDS011;9894;50.852;-0.140;2023-08-01T06:04:06;0.70;;;0.38;;
19505;SDS011;9894;50.852;-0.140;2023-08-01T06:06:32;0.68;;;0.68;;
19505;SDS011;9894;50.852;-0.140;2023-08-01T06:08:59;0.10;;;0.10;;
19505;SDS011;9894;50.852;-0.140;2023-08-01T06:11:25;0.10;;;0.10;;
19505;SDS011;9894;50.852;-0.140;2023-08-01T06:13:52;0.25;;;0.25;;
19505;SDS011;9894;50.852;-0.140;2023-08-01T06:16:18;6.85;;;2.00;;
19505;SDS011;9894;50.852;-0.140;2023-08-01T06:18:44;5.03;;;0.98;;
19505;SDS011;9894;50.852;-0.140;2023-08-01T06:21:10;1.80;;;0.88;;
19505;SDS011;9894;50.852;-0.140;2023-08-01T06:23:36;5.15;;;1.40;;
19505;SDS011;9894;50.852;-0.140;2023-08-01T06:26:03;4.65;;;0.73;;
19505;SDS011;9894;50.852;-0.140;2023-08-01T06:28:29;0.38;;;0.38;;
19505;SDS011;9894;50.852;-0.140;2023-08-01T06:30:56;0.20;;;0.20;;
19505;SDS011;9894;50.852;-0.140;2023-08-01T06:33:22;1.65;;;0.82;;
19505;SDS011;9894;50.852;-0.140;2023-08-01T06:35:48;6.03;;;1.23;;
19505;SDS011;9894;50.852;-0.140;2023-08-01T06:38:15;6.70;;;0.52;;
19505;SDS011;9894;50.852;-0.140;2023-08-01T06:40:41;11.07;;;3.08;;
19505;SDS011;9894;50.852;-0.140;2023-08-01T06:43:07;6.30;;;1.52;;
19505;SDS011;9894;50.852;-0.140;2023-08-01T06:45:33;0.95;;;0.95;;
19505;SDS011;9894;50.852;-0.140;2023-08-01T06:47:59;4.03;;;1.55;;
19505;SDS011;9894;50.852;-0.140;2023-08-01T06:50:25;0.28;;;0.28;;
19505;SDS011;9894;50.852;-0.140;2023-08-01T06:52:52;4.80;;;1.25;;
19505;SDS011;9894;50.852;-0.140;2023-08-01T06:55:18;0.80;;;0.47;;
19505;SDS011;9894;50.852;-0.140;2023-08-01T06:57:44;0.80;;;0.50;;
19505;SDS011;9894;50.852;-0.140;2023-08-01T07:00:10;5.93;;;2.00;;
19505;SDS011;9894;50.852;-0.140;2023-08-01T07:02:36;2.97;;;0.77;;
19505;SDS011;9894;50.852;-0.140;2023-08-01T07:05:03;5.05;;;1.65;;
19505;SDS011;9894;50.852;-0.140;2023-08-01T07:07:30;0.45;;;0.45;;
19505;SDS011;9894;50.852;-0.140;2023-08-01T07:09:56;0.38;;;0.38;;
19505;SDS011;9894;50.852;-0.140;2023-08-01T07:12:22;3.10;;;0.95;;
19505;SDS011;9894;50.852;-0.140;2023-08-01T07:14:48;6.75;;;1.75;;
19505;SDS011;9894;50.852;-0.140;2023-08-01T07:17:14;3.38;;;1.17;;
19505;SDS011;9894;50.852;-0.140;2023-08-01T07:19:41;0.20;;;0.20;;
19505;SDS011;9894;50.852;-0.140;2023-08-01T07:22:07;0.45;;;0.30;;
19505;SDS011;9894;50.852;-0.140;2023-08-01T07:24:33;1.35;;;0.63;;
19505;SDS011;9894;50.852;-0.140;2023-08-01T07:26:59;2.45;;;1.00;;
19505;SDS011;9894;50.852;-0.140;2023-08-01T07:29:25;0.15;;;0.15;;
19505;SDS011;9894;50.852;-0.140;2023-08-01T07:31:51;0.85;;;0.57;;
19505;SDS011;9894;50.852;-0.140;2023-08-01T07:34:18;0.10;;;0.10;;
19505;SDS011;9894;50.852;-0.140;2023-08-01T07:36:45;2.53;;;0.65;;
19505;SDS011;9894;50.852;-0.140;2023-08-01T07:39:13;11.93;;;1.55;;
19505;SDS011;9894;50.852;-0.140;2023-08-01T07:41:39;4.18;;;2.17;;
19505;SDS011;9894;50.852;-0.140;2023-08-01T07:44:05;3.30;;;1.33;;
19505;SDS011;9894;50.852;-0.140;2023-08-01T07:46:32;1.85;;;0.77;;
19505;SDS011;9894;50.852;-0.140;2023-08-01T07:48:58;1.95;;;0.98;;
19505;SDS011;9894;50.852;-0.140;2023-08-01T07:51:25;4.53;;;1.20;;
19505;SDS011;9894;50.852;-0.140;2023-08-01T07:53:52;6.22;;;1.60;;
19505;SDS011;9894;50.852;-0.140;2023-08-01T07:56:19;0.45;;;0.40;;
19505;SDS011;9894;50.852;-0.140;2023-08-01T07:58:45;1.45;;;0.63;;
19505;SDS011;9894;50.852;-0.140;2023-08-01T08:01:11;4.72;;;0.88;;
19505;SDS011;9894;50.852;-0.140;2023-08-01T08:03:38;0.10;;;0.10;;
19505;SDS011;9894;50.852;-0.140;2023-08-01T08:06:04;3.00;;;0.95;;
19505;SDS011;9894;50.852;-0.140;2023-08-01T08:08:30;0.10;;;0.10;;
19505;SDS011;9894;50.852;-0.140;2023-08-01T08:11:01;0.20;;;0.20;;
19505;SDS011;9894;50.852;-0.140;2023-08-01T08:13:28;0.55;;;0.55;;
19505;SDS011;9894;50.852;-0.140;2023-08-01T08:15:57;6.72;;;1.77;;
19505;SDS011;9894;50.852;-0.140;2023-08-01T08:18:23;7.47;;;1.27;;
19505;SDS011;9894;50.852;-0.140;2023-08-01T08:20:50;0.35;;;0.35;;
19505;SDS011;9894;50.852;-0.140;2023-08-01T08:23:16;6.95;;;2.00;;
19505;SDS011;9894;50.852;-0.140;2023-08-01T08:25:43;1.60;;;0.77;;
19505;SDS011;9894;50.852;-0.140;2023-08-01T08:28:12;3.35;;;1.10;;
19505;SDS011;9894;50.852;-0.140;2023-08-01T08:30:39;1.00;;;0.40;;
19505;SDS011;9894;50.852;-0.140;2023-08-01T08:33:05;1.00;;;0.85;;
19505;SDS011;9894;50.852;-0.140;2023-08-01T08:35:34;0.88;;;0.55;;
19505;SDS011;9894;50.852;-0.140;2023-08-01T08:38:02;5.20;;;1.20;;
19505;SDS011;9894;50.852;-0.140;2023-08-01T08:40:32;0.20;;;0.20;;
19505;SDS011;9894;50.852;-0.140;2023-08-01T08:43:00;0.13;;;0.13;;
19505;SDS011;9894;50.852;-0.140;2023-08-01T08:45:26;4.75;;;0.95;;
19505;SDS011;9894;50.852;-0.140;2023-08-01T08:47:55;3.63;;;1.02;;
19505;SDS011;9894;50.852;-0.140;2023-08-01T08:50:23;4.15;;;1.60;;
19505;SDS011;9894;50.852;-0.140;2023-08-01T08:52:50;4.53;;;1.00;;
19505;SDS011;9894;50.852;-0.140;2023-08-01T08:55:16;1.23;;;0.95;;
19505;SDS011;9894;50.852;-0.140;2023-08-01T08:57:46;0.43;;;0.43;;
19505;SDS011;9894;50.852;-0.140;2023-08-01T09:00:15;6.03;;;1.48;;
19505;SDS011;9894;50.852;-0.140;2023-08-01T09:02:42;1.40;;;0.93;;
19505;SDS011;9894;50.852;-0.140;2023-08-01T09:05:08;0.63;;;0.63;;
19505;SDS011;9894;50.852;-0.140;2023-08-01T09:07:34;0.52;;;0.47;;
19505;SDS011;9894;50.852;-0.140;2023-08-01T09:10:04;4.53;;;0.82;;
19505;SDS011;9894;50.852;-0.140;2023-08-01T09:12:33;1.30;;;1.20;;
19505;SDS011;9894;50.852;-0.140;2023-08-01T09:14:59;2.35;;;0.75;;
19505;SDS011;9894;50.852;-0.140;2023-08-01T09:17:26;6.50;;;1.45;;
19505;SDS011;9894;50.852;-0.140;2023-08-01T09:20:05;0.25;;;0.25;;
19505;SDS011;9894;50.852;-0.140;2023-08-01T09:22:40;0.40;;;0.28;;
19505;SDS011;9894;50.852;-0.140;2023-08-01T09:25:07;1.65;;;0.90;;
19505;SDS011;9894;50.852;-0.140;2023-08-01T09:27:33;0.65;;;0.40;;
19505;SDS011;9894;50.852;-0.140;2023-08-01T09:30:12;0.57;;;0.40;;
19505;SDS011;9894;50.852;-0.140;2023-08-01T09:33:02;3.53;;;1.05;;
19505;SDS011;9894;50.852;-0.140;2023-08-01T09:35:27;3.97;;;1.50;;
19505;SDS011;9894;50.852;-0.140;2023-08-01T09:37:53;0.32;;;0.32;;
19505;SDS011;9894;50.852;-0.140;2023-08-01T09:40:20;0.60;;;0.60;;
19505;SDS011;9894;50.852;-0.140;2023-08-01T09:42:46;1.10;;;0.95;;
19505;SDS011;9894;50.852;-0.140;2023-08-01T09:45:13;1.67;;;0.65;;
19505;SDS011;9894;50.852;-0.140;2023-08-01T09:47:40;5.28;;;1.60;;
19505;SDS011;9894;50.852;-0.140;2023-08-01T09:50:06;5.90;;;1.20;;
19505;SDS011;9894;50.852;-0.140;2023-08-01T09:52:33;1.27;;;0.93;;
19505;SDS011;9894;50.852;-0.140;2023-08-01T09:54:59;2.78;;;0.55;;
19505;SDS011;9894;50.852;-0.140;2023-08-01T09:57:27;0.80;;;0.65;;
19505;SDS011;9894;50.852;-0.140;2023-08-01T09:59:55;1.90;;;1.08;;
19505;SDS011;9894;50.852;-0.140;2023-08-01T10:02:23;1.25;;;0.65;;
19505;SDS011;9894;50.852;-0.140;2023-08-01T10:05:09;2.08;;;1.00;;
19505;SDS011;9894;50.852;-0.140;2023-08-01T10:07:37;0.70;;;0.70;;
19505;SDS011;9894;50.852;-0.140;2023-08-01T10:10:04;0.60;;;0.60;;
19505;SDS011;9894;50.852;-0.140;2023-08-01T10:12:31;0.70;;;0.70;;
19505;SDS011;9894;50.852;-0.140;2023-08-01T10:14:57;1.30;;;1.00;;
19505;SDS011;9894;50.852;-0.140;2023-08-01T10:17:24;2.00;;;1.38;;
19505;SDS011;9894;50.852;-0.140;2023-08-01T10:19:51;1.00;;;1.00;;
19505;SDS011;9894;50.852;-0.140;2023-08-01T10:22:21;1.75;;;1.20;;
19505;SDS011;9894;50.852;-0.140;2023-08-01T10:24:47;1.27;;;1.20;;
19505;SDS011;9894;50.852;-0.140;2023-08-01T10:27:15;1.55;;;1.27;;
19505;SDS011;9894;50.852;-0.140;2023-08-01T10:29:42;1.13;;;1.13;;
19505;SDS011;9894;50.852;-0.140;2023-08-01T10:32:09;9.35;;;2.17;;
19505;SDS011;9894;50.852;-0.140;2023-08-01T10:34:35;1.67;;;1.48;;
19505;SDS011;9894;50.852;-0.140;2023-08-01T10:37:02;10.30;;;1.77;;
19505;SDS011;9894;50.852;-0.140;2023-08-01T10:39:28;3.40;;;1.50;;
19505;SDS011;9894;50.852;-0.140;2023-08-01T10:42:02;1.63;;;1.52;;
19505;SDS011;9894;50.852;-0.140;2023-08-01T10:44:28;1.40;;;1.30;;
19505;SDS011;9894;50.852;-0.140;2023-08-01T10:47:00;1.70;;;1.60;;
19505;SDS011;9894;50.852;-0.140;2023-08-01T10:51:59;1.60;;;1.50;;
19505;SDS011;9894;50.852;-0.140;2023-08-01T10:54:25;2.15;;;2.05;;
19505;SDS011;9894;50.852;-0.140;2023-08-01T10:56:52;8.00;;;3.17;;
19505;SDS011;9894;50.852;-0.140;2023-08-01T10:59:19;2.55;;;2.22;;
19505;SDS011;9894;50.852;-0.140;2023-08-01T11:01:47;4.95;;;2.40;;
19505;SDS011;9894;50.852;-0.140;2023-08-01T11:04:17;18.35;;;3.03;;
19505;SDS011;9894;50.852;-0.140;2023-08-01T11:06:47;4.03;;;3.03;;
19505;SDS011;9894;50.852;-0.140;2023-08-01T11:11:43;3.45;;;2.15;;
19505;SDS011;9894;50.852;-0.140;2023-08-01T11:14:10;1.60;;;1.60;;
19505;SDS011;9894;50.852;-0.140;2023-08-01T11:16:37;1.50;;;1.50;;
19505;SDS011;9894;50.852;-0.140;2023-08-01T11:19:04;1.90;;;1.80;;
19505;SDS011;9894;50.852;-0.140;2023-08-01T11:21:30;1.70;;;1.60;;
19505;SDS011;9894;50.852;-0.140;2023-08-01T11:24:00;2.00;;;1.80;;
19505;SDS011;9894;50.852;-0.140;2023-08-01T11:26:32;1.90;;;1.80;;
19505;SDS011;9894;50.852;-0.140;2023-08-01T11:29:02;2.30;;;1.55;;
19505;SDS011;9894;50.852;-0.140;2023-08-01T11:31:28;4.40;;;2.00;;
19505;SDS011;9894;50.852;-0.140;2023-08-01T11:33:56;2.47;;;2.08;;
19505;SDS011;9894;50.852;-0.140;2023-08-01T11:36:26;3.50;;;2.38;;
19505;SDS011;9894;50.852;-0.140;2023-08-01T11:38:53;3.40;;;2.60;;
19505;SDS011;9894;50.852;-0.140;2023-08-01T11:41:20;2.17;;;2.05;;
19505;SDS011;9894;50.852;-0.140;2023-08-01T11:43:46;2.50;;;2.40;;
19505;SDS011;9894;50.852;-0.140;2023-08-01T11:46:12;11.85;;;3.72;;
19505;SDS011;9894;50.852;-0.140;2023-08-01T11:48:38;3.40;;;3.20;;
19505;SDS011;9894;50.852;-0.140;2023-08-01T11:51:05;4.18;;;3.55;;
19505;SDS011;9894;50.852;-0.140;2023-08-01T11:53:31;7.90;;;4.35;;
19505;SDS011;9894;50.852;-0.140;2023-08-01T11:56:04;4.32;;;3.97;;
19505;SDS011;9894;50.852;-0.140;2023-08-01T11:58:31;4.03;;;3.67;;
19505;SDS011;9894;50.852;-0.140;2023-08-01T12:03:29;5.47;;;4.00;;
19505;SDS011;9894;50.852;-0.140;2023-08-01T12:06:03;11.48;;;4.32;;
19505;SDS011;9894;50.852;-0.140;2023-08-01T12:08:31;8.98;;;4.40;;
19505;SDS011;9894;50.852;-0.140;2023-08-01T12:10:58;5.60;;;3.17;;
19505;SDS011;9894;50.852;-0.140;2023-08-01T12:13:24;4.55;;;3.28;;
19505;SDS011;9894;50.852;-0.140;2023-08-01T12:15:51;6.03;;;3.80;;
19505;SDS011;9894;50.852;-0.140;2023-08-01T12:18:25;5.55;;;2.50;;
19505;SDS011;9894;50.852;-0.140;2023-08-01T12:20:55;7.32;;;2.10;;
19505;SDS011;9894;50.852;-0.140;2023-08-01T12:23:21;12.13;;;2.15;;
19505;SDS011;9894;50.852;-0.140;2023-08-01T12:25:47;4.78;;;1.60;;
19505;SDS011;9894;50.852;-0.140;2023-08-01T12:28:14;15.23;;;4.00;;
19505;SDS011;9894;50.852;-0.140;2023-08-01T12:30:41;9.93;;;3.10;;
19505;SDS011;9894;50.852;-0.140;2023-08-01T12:33:08;2.90;;;2.70;;
19505;SDS011;9894;50.852;-0.140;2023-08-01T12:35:38;5.22;;;3.08;;
19505;SDS011;9894;50.852;-0.140;2023-08-01T12:38:04;12.80;;;4.43;;
19505;SDS011;9894;50.852;-0.140;2023-08-01T12:40:31;30.90;;;7.05;;
19505;SDS011;9894;50.852;-0.140;2023-08-01T12:42:57;5.45;;;5.15;;
19505;SDS011;9894;50.852;-0.140;2023-08-01T12:45:26;7.60;;;6.88;;
19505;SDS011;9894;50.852;-0.140;2023-08-01T12:47:53;6.50;;;5.90;;
19505;SDS011;9894;50.852;-0.140;2023-08-01T12:50:19;6.20;;;5.63;;
19505;SDS011;9894;50.852;-0.140;2023-08-01T12:52:45;11.07;;;6.18;;
19505;SDS011;9894;50.852;-0.140;2023-08-01T12:55:11;8.43;;;5.70;;
19505;SDS011;9894;50.852;-0.140;2023-08-01T12:57:37;6.30;;;5.90;;
19505;SDS011;9894;50.852;-0.140;2023-08-01T13:00:04;15.57;;;7.78;;
19505;SDS011;9894;50.852;-0.140;2023-08-01T13:02:30;7.40;;;6.70;;
19505;SDS011;9894;50.852;-0.140;2023-08-01T13:04:57;7.00;;;6.40;;
19505;SDS011;9894;50.852;-0.140;2023-08-01T13:07:23;11.23;;;7.97;;
19505;SDS011;9894;50.852;-0.140;2023-08-01T13:09:49;6.78;;;6.32;;
19505;SDS011;9894;50.852;-0.140;2023-08-01T13:12:15;9.38;;;8.45;;
19505;SDS011;9894;50.852;-0.140;2023-08-01T13:14:42;7.97;;;7.18;;
19505;SDS011;9894;50.852;-0.140;2023-08-01T13:17:08;11.18;;;8.90;;
19505;SDS011;9894;50.852;-0.140;2023-08-01T13:19:34;13.82;;;9.80;;
19505;SDS011;9894;50.852;-0.140;2023-08-01T13:22:00;12.98;;;7.70;;
19505;SDS011;9894;50.852;-0.140;2023-08-01T13:24:27;21.80;;;9.60;;
19505;SDS011;9894;50.852;-0.140;2023-08-01T13:26:53;9.77;;;8.50;;
19505;SDS011;9894;50.852;-0.140;2023-08-01T13:29:19;10.05;;;9.05;;
19505;SDS011;9894;50.852;-0.140;2023-08-01T13:31:45;35.95;;;10.20;;
19505;SDS011;9894;50.852;-0.140;2023-08-01T13:34:11;10.70;;;9.70;;
19505;SDS011;9894;50.852;-0.140;2023-08-01T13:36:37;10.93;;;10.13;;
19505;SDS011;9894;50.852;-0.140;2023-08-01T13:39:04;10.63;;;9.90;;
19505;SDS011;9894;50.852;-0.140;2023-08-01T13:41:31;13.57;;;10.82;;
19505;SDS011;9894;50.852;-0.140;2023-08-01T13:43:58;17.77;;;13.02;;
19505;SDS011;9894;50.852;-0.140;2023-08-01T13:46:24;13.20;;;11.90;;
19505;SDS011;9894;50.852;-0.140;2023-08-01T13:48:50;14.30;;;13.02;;
19505;SDS011;9894;50.852;-0.140;2023-08-01T13:51:17;13.18;;;11.93;;
19505;SDS011;9894;50.852;-0.140;2023-08-01T13:53:43;14.55;;;13.00;;
19505;SDS011;9894;50.852;-0.140;2023-08-01T13:56:09;16.90;;;11.60;;
19505;SDS011;9894;50.852;-0.140;2023-08-01T13:58:39;12.32;;;8.57;;
19505;SDS011;9894;50.852;-0.140;2023-08-01T14:01:06;8.38;;;7.63;;
19505;SDS011;9894;50.852;-0.140;2023-08-01T14:03:32;10.05;;;9.25;;
19505;SDS011;9894;50.852;-0.140;2023-08-01T14:06:11;10.55;;;9.85;;
19505;SDS011;9894;50.852;-0.140;2023-08-01T14:08:38;10.90;;;10.10;;
19505;SDS011;9894;50.852;-0.140;2023-08-01T14:11:05;12.90;;;11.90;;
19505;SDS011;9894;50.852;-0.140;2023-08-01T14:13:32;13.40;;;12.23;;
19505;SDS011;9894;50.852;-0.140;2023-08-01T14:15:58;12.43;;;11.32;;
19505;SDS011;9894;50.852;-0.140;2023-08-01T14:18:25;26.27;;;14.15;;
19505;SDS011;9894;50.852;-0.140;2023-08-01T14:20:51;12.88;;;11.77;;
19505;SDS011;9894;50.852;-0.140;2023-08-01T14:23:18;11.85;;;10.95;;
19505;SDS011;9894;50.852;-0.140;2023-08-01T14:25:45;13.13;;;11.93;;
19505;SDS011;9894;50.852;-0.140;2023-08-01T14:28:11;15.48;;;14.27;;
19505;SDS011;9894;50.852;-0.140;2023-08-01T14:30:38;14.68;;;13.23;;
19505;SDS011;9894;50.852;-0.140;2023-08-01T14:33:05;12.52;;;11.27;;
19505;SDS011;9894;50.852;-0.140;2023-08-01T14:35:33;10.98;;;9.85;;
19505;SDS011;9894;50.852;-0.140;2023-08-01T14:37:59;10.43;;;9.73;;
19505;SDS011;9894;50.852;-0.140;2023-08-01T14:40:26;19.95;;;12.40;;
19505;SDS011;9894;50.852;-0.140;2023-08-01T14:42:52;15.45;;;11.00;;
19505;SDS011;9894;50.852;-0.140;2023-08-01T14:45:18;15.88;;;8.30;;
19505;SDS011;9894;50.852;-0.140;2023-08-01T14:47:45;9.27;;;7.38;;
19505;SDS011;9894;50.852;-0.140;2023-08-01T14:50:11;18.13;;;8.35;;